Bayfield, CO (81122)

11:16 PM MST on February 08, 2016 (GMT -0700)
Timberdale Ranch | | Change Station
CLOSE
Current Station
Personal Weather Station
Location: Bayfield, CO
Elevation: 7690 ft
Nearby Weather Stations

Elev 7690 ft 37.30 °N, 107.65 °W | Updated 41 seconds ago

Clear
Clear
32.0 °F
Feels Like 32 °F
N
0.7
Wind Variable Wind from NNW
Gusts 1.3 mph

Today
High -- | Low -- °F
--% Chance of Precip.
Yesterday
High -- | Low -- °F
Precip. -- in
Pressure 30.55 in
Visibility 10.0 miles
Clouds Clear
Windchill 32 °F
Dew Point 16 °F
Humidity 50%
Rainfall 0.00 in
Snow Depth Not available.
7:07 AM 5:42 PM
New Moon, 1% visible
METAR KDRO 090553Z AUTO 07005KT 10SM CLR M06/M08 A3043 RMK AO2 SLP345 T10561083 10044 21078 53002
Pressure 30.55 in
Visibility 10.0 miles
Clouds Clear
Windchill 32 °F
Dew Point 16 °F
Humidity 50%
Rainfall 0.00 in
Snow Depth Not available.
7:07 AM 5:42 PM
New Moon, 1% visible
METAR KDRO 090553Z AUTO 07005KT 10SM CLR M06/M08 A3043 RMK AO2 SLP345 T10561083 10044 21078 53002

10-Day Weather Forecast

Almanac

Astronomy

Feb. 08, 2016 Rise Set
Actual Time
Civil Twilight
Nautical Twilight
Astronomical Twilight
Moon
Length of Visible Light
Length of Day
Tomorrow will be .
, % of the Moon is Illuminated

Today's Extremes

State Highs State Lows

Community

WunderPhotos

Upload Photos

1,891,571 photos uploaded!

WunderBlog® & News

Nearby

Air Quality

  Air Quality AQ Index Pollutant
Not available.

Snow Depth

Station Depth Elevation

Earthquake Activity

City Distance Mag. Time & Date
Minimum magnitude displayed is 2.5.

Coastal Water Temperatures

Place Temperature

Stations

Nearby Weather Stations

Station Location Temp. Windchill Dew Point Humidity Wind Precip. Elev Updated Type
                   

Watches & Warnings

There are currently no watches in effect.